createdAt,value
2019-05-05T00:02:11.416Z,91.55
2019-05-05T00:04:45.512Z,91.76
2019-05-05T00:07:18.619Z,91.73
2019-05-05T00:09:51.461Z,90.73
2019-05-05T00:12:25.177Z,90.48
2019-05-05T00:14:58.082Z,90.57
2019-05-05T00:17:31.165Z,90.57
2019-05-05T00:20:05.317Z,90.28
2019-05-05T00:22:38.468Z,90.17
2019-05-05T00:25:14.329Z,90.49
2019-05-05T00:27:47.646Z,90.49
2019-05-05T00:30:20.559Z,91.35
2019-05-05T00:32:54.868Z,91.35
2019-05-05T00:35:27.867Z,92.01
2019-05-05T00:38:00.970Z,92.95
2019-05-05T00:40:35.281Z,93.63
2019-05-05T00:43:08.224Z,93.77
2019-05-05T00:45:41.469Z,93.43
2019-05-05T00:48:15.292Z,93.74
2019-05-05T00:50:48.299Z,94.45
2019-05-05T00:53:21.242Z,94.75
2019-05-05T00:55:54.707Z,95.46
2019-05-05T00:58:27.592Z,95.46
2019-05-05T01:01:00.414Z,96.02
2019-05-05T01:03:34.767Z,96.06
2019-05-05T01:06:07.738Z,96.20
2019-05-05T01:08:40.754Z,96.20
2019-05-05T01:11:14.464Z,95.84
2019-05-05T01:13:47.430Z,95.91
2019-05-05T01:16:20.794Z,95.91
2019-05-05T01:18:55.388Z,96.46
2019-05-05T01:21:28.315Z,96.55
2019-05-05T01:24:01.212Z,96.69
2019-05-05T01:26:35.387Z,96.69
2019-05-05T01:29:08.560Z,97.15
2019-05-05T01:31:41.560Z,97.39
2019-05-05T01:34:15.116Z,97.39
2019-05-05T01:36:48.186Z,97.11
2019-05-05T01:39:21.097Z,97.34
2019-05-05T01:41:54.343Z,97.34
2019-05-05T01:44:27.239Z,97.20
2019-05-05T01:47:00.079Z,97.20
2019-05-05T01:49:34.510Z,96.86
2019-05-05T01:52:07.614Z,97.26
2019-05-05T01:54:40.440Z,97.28
2019-05-05T01:57:14.772Z,97.27
2019-05-05T01:59:48.135Z,97.01
2019-05-05T02:02:21.052Z,96.74
2019-05-05T02:04:55.367Z,96.38
2019-05-05T02:07:28.598Z,96.40
2019-05-05T02:10:01.766Z,96.55
2019-05-05T02:12:35.317Z,97.05
2019-05-05T02:15:08.960Z,97.49
2019-05-05T02:17:41.916Z,97.81
2019-05-05T02:20:41.310Z,97.48
2019-05-05T02:23:15.162Z,97.48
2019-05-05T02:25:48.387Z,97.55
2019-05-05T02:28:21.301Z,97.59
2019-05-05T02:30:55.008Z,97.72
2019-05-05T02:33:28.245Z,97.37
2019-05-05T02:36:01.205Z,97.32
2019-05-05T02:38:35.405Z,97.13
2019-05-05T02:41:08.857Z,96.89
2019-05-05T02:43:44.811Z,96.91
2019-05-05T02:46:16.954Z,96.77
2019-05-05T02:48:55.125Z,96.81
2019-05-05T02:51:28.539Z,96.48
2019-05-05T02:54:04.408Z,96.48
2019-05-05T02:56:39.694Z,95.88
2019-05-05T02:59:15.074Z,95.72
2019-05-05T03:01:48.044Z,95.72
2019-05-05T03:04:24.312Z,96.39
2019-05-05T03:06:58.236Z,96.39
2019-05-05T03:09:32.170Z,96.82
2019-05-05T03:12:05.378Z,97.04
2019-05-05T03:14:40.507Z,96.69
2019-05-05T03:17:14.433Z,96.62
2019-05-05T03:19:49.468Z,96.62
2019-05-05T03:22:24.540Z,96.69
2019-05-05T03:24:58.132Z,96.69
2019-05-05T03:27:31.463Z,97.20
2019-05-05T03:30:05.300Z,97.18
2019-05-05T03:32:38.260Z,96.97
2019-05-05T03:35:13.561Z,97.32
2019-05-05T03:37:46.726Z,97.07
2019-05-05T03:40:19.883Z,96.89
2019-05-05T03:42:53.581Z,96.58
2019-05-05T03:45:26.646Z,96.52
2019-05-05T03:47:59.720Z,96.38
2019-05-05T03:50:34.094Z,96.83
2019-05-05T03:53:07.399Z,97.33
2019-05-05T03:55:40.316Z,97.05
2019-05-05T03:58:14.643Z,97.37
2019-05-05T04:01:26.995Z,97.37
2019-05-05T04:04:00.126Z,97.56
2019-05-05T04:06:33.980Z,97.62
2019-05-05T04:09:07.415Z,97.62
2019-05-05T04:11:40.712Z,97.17
2019-05-05T04:14:14.837Z,97.22
2019-05-05T04:16:47.831Z,97.01
2019-05-05T04:19:20.783Z,97.45
2019-05-05T04:21:53.753Z,97.24
2019-05-05T04:24:26.593Z,97.45
2019-05-05T04:26:59.609Z,97.75
2019-05-05T04:29:34.453Z,96.99
2019-05-05T04:32:07.272Z,97.02
2019-05-05T04:34:40.513Z,97.04
2019-05-05T04:37:14.943Z,97.04
2019-05-05T04:39:48.393Z,96.94
2019-05-05T04:42:21.392Z,97.07
2019-05-05T04:44:54.276Z,97.24
2019-05-05T04:47:27.801Z,97.17
2019-05-05T04:50:00.793Z,97.17
2019-05-05T04:52:34.416Z,97.32
2019-05-05T04:55:07.508Z,97.43
2019-05-05T04:57:40.418Z,96.34
2019-05-05T05:00:13.920Z,95.58
2019-05-05T05:02:46.866Z,95.26
2019-05-05T05:05:19.908Z,94.77
2019-05-05T05:07:54.631Z,94.77
2019-05-05T05:10:28.094Z,93.39
2019-05-05T05:13:01.446Z,93.39
2019-05-05T05:15:34.332Z,92.26
2019-05-05T05:18:07.672Z,92.26
2019-05-05T05:20:40.697Z,92.34
2019-05-05T05:23:14.286Z,92.08
2019-05-05T05:25:47.221Z,91.98
2019-05-05T05:28:20.594Z,91.98
2019-05-05T05:30:54.556Z,91.82
2019-05-05T05:33:27.845Z,91.99
2019-05-05T05:36:00.768Z,91.04
2019-05-05T05:38:34.636Z,89.58
2019-05-05T05:41:07.760Z,89.64
2019-05-05T05:43:40.714Z,89.64
2019-05-05T05:46:13.702Z,89.67
2019-05-05T05:48:46.603Z,84.93
2019-05-05T05:51:19.629Z,82.70
2019-05-05T05:53:54.254Z,82.70
2019-05-05T05:56:27.418Z,82.72
2019-05-05T05:59:00.388Z,82.72
2019-05-05T06:01:34.600Z,82.87
2019-05-05T06:04:07.475Z,82.82
2019-05-05T06:06:40.437Z,83.39
2019-05-05T06:09:14.824Z,83.67
2019-05-05T06:11:47.952Z,83.84
2019-05-05T06:14:21.340Z,83.52
2019-05-05T06:16:54.375Z,83.52
2019-05-05T06:19:27.366Z,83.33
2019-05-05T06:22:00.319Z,82.86
2019-05-05T06:24:34.549Z,82.86
2019-05-05T06:27:07.703Z,82.75
2019-05-05T06:29:40.744Z,81.61
2019-05-05T06:32:14.604Z,81.19
2019-05-05T06:34:47.674Z,81.92
2019-05-05T06:37:20.771Z,80.98
2019-05-05T06:39:54.447Z,80.98
2019-05-05T06:42:27.520Z,82.49
2019-05-05T06:45:00.419Z,82.49
2019-05-05T06:47:33.984Z,83.03
2019-05-05T06:50:07.431Z,83.35
2019-05-05T06:52:44.232Z,81.72
2019-05-05T06:55:15.556Z,82.23
2019-05-05T06:57:48.496Z,82.23
2019-05-05T07:00:21.456Z,82.39
2019-05-05T07:02:54.565Z,80.66
2019-05-05T07:05:28.189Z,80.38
2019-05-05T07:08:01.097Z,77.30
2019-05-05T07:10:34.779Z,77.30
2019-05-05T07:13:07.873Z,78.37
2019-05-05T07:15:40.863Z,76.35
2019-05-05T07:18:14.388Z,76.84
2019-05-05T07:20:47.293Z,77.81
2019-05-05T07:23:20.221Z,75.56
2019-05-05T07:25:54.920Z,72.01
2019-05-05T07:28:28.345Z,71.45
2019-05-05T07:31:01.667Z,71.45
2019-05-05T07:33:34.875Z,69.95
2019-05-05T07:36:07.842Z,69.95
2019-05-05T07:38:41.122Z,68.24
2019-05-05T07:41:14.179Z,66.65
2019-05-05T07:43:47.139Z,74.12
2019-05-05T07:46:20.099Z,74.12
2019-05-05T07:48:54.465Z,79.21
2019-05-05T07:51:27.644Z,82.12
2019-05-05T07:54:00.906Z,84.11
2019-05-05T07:56:34.510Z,82.20
2019-05-05T07:59:07.535Z,79.67
2019-05-05T08:01:43.459Z,79.67
2019-05-05T08:04:15.922Z,74.43
2019-05-05T08:06:48.985Z,74.43
2019-05-05T08:09:24.647Z,67.04
2019-05-05T08:11:57.108Z,59.68
2019-05-05T08:14:30.047Z,58.10
2019-05-05T08:17:04.132Z,54.65
2019-05-05T08:19:37.650Z,48.97
2019-05-05T08:22:10.592Z,53.43
2019-05-05T08:24:44.025Z,50.83
2019-05-05T08:27:16.971Z,53.72
2019-05-05T08:29:50.209Z,58.64
2019-05-05T08:32:23.774Z,52.85
2019-05-05T08:35:00.831Z,52.85
2019-05-05T08:37:31.847Z,43.70
2019-05-05T08:40:05.789Z,43.70
2019-05-05T08:42:38.769Z,39.67
2019-05-05T08:45:13.835Z,59.91
2019-05-05T08:47:47.158Z,65.88
2019-05-05T08:50:20.058Z,65.88
2019-05-05T08:52:53.750Z,71.58
2019-05-05T08:55:28.519Z,71.58
2019-05-05T08:58:01.643Z,74.01
2019-05-05T09:00:34.660Z,73.02
2019-05-05T09:03:07.666Z,70.90
2019-05-05T09:05:40.680Z,70.90
2019-05-05T09:08:14.055Z,68.77
2019-05-05T09:10:47.062Z,68.77
2019-05-05T09:13:20.013Z,56.77
2019-05-05T09:15:54.401Z,44.36
2019-05-05T09:18:27.432Z,44.36
2019-05-05T09:21:00.392Z,39.91
2019-05-05T09:23:34.673Z,38.53
2019-05-05T09:26:07.682Z,42.87
2019-05-05T09:28:40.669Z,42.87
2019-05-05T09:31:14.621Z,45.90
2019-05-05T09:33:47.832Z,48.05
2019-05-05T09:36:20.832Z,48.05
2019-05-05T09:38:54.149Z,47.83
2019-05-05T09:41:27.092Z,40.26
2019-05-05T09:44:00.448Z,40.26
2019-05-05T09:46:34.056Z,37.49
2019-05-05T09:49:07.006Z,37.48
2019-05-05T09:51:40.076Z,40.26
2019-05-05T09:54:16.721Z,40.26
2019-05-05T09:56:48.030Z,40.88
2019-05-05T09:59:21.056Z,41.17
2019-05-05T10:01:54.142Z,41.20
2019-05-05T10:04:27.173Z,41.20
2019-05-05T10:07:00.037Z,43.84
2019-05-05T10:09:34.520Z,47.71
2019-05-05T10:12:07.728Z,47.71
2019-05-05T10:14:40.758Z,49.71
2019-05-05T10:17:14.263Z,54.76
2019-05-05T10:19:47.425Z,54.76
2019-05-05T10:22:20.369Z,59.55
2019-05-05T10:24:56.771Z,59.55
2019-05-05T10:27:41.910Z,58.00
2019-05-05T10:30:04.172Z,55.99
2019-05-05T10:32:37.178Z,52.60
2019-05-05T10:35:10.558Z,49.14
2019-05-05T10:37:43.964Z,51.22
2019-05-05T10:40:17.173Z,51.22
2019-05-05T10:42:50.285Z,53.24
2019-05-05T10:45:24.436Z,56.64
2019-05-05T10:47:57.786Z,57.05
2019-05-05T10:50:30.993Z,56.08
2019-05-05T10:53:04.712Z,58.37
2019-05-05T10:55:38.165Z,58.37
2019-05-05T10:58:13.656Z,55.72
2019-05-05T11:00:48.188Z,55.49
2019-05-05T11:03:23.579Z,55.49
2019-05-05T11:05:56.575Z,54.41
2019-05-05T11:08:30.797Z,53.39
2019-05-05T11:11:04.375Z,52.78
2019-05-05T11:13:37.318Z,52.08
2019-05-05T11:16:10.376Z,52.44
2019-05-05T11:18:43.462Z,52.44
2019-05-05T11:21:16.531Z,51.09
2019-05-05T11:23:49.409Z,51.58
2019-05-05T11:26:24.538Z,51.95
2019-05-05T11:28:57.280Z,50.63
2019-05-05T11:31:30.128Z,50.63
2019-05-05T11:34:03.084Z,48.18
2019-05-05T11:36:36.166Z,45.20
2019-05-05T11:39:09.090Z,45.20
2019-05-05T11:41:44.069Z,41.23
2019-05-05T11:44:17.153Z,42.91
2019-05-05T11:46:50.143Z,42.91
2019-05-05T11:49:24.506Z,42.61
2019-05-05T11:51:57.584Z,42.61
2019-05-05T11:54:30.473Z,41.88
2019-05-05T11:57:04.368Z,41.11
2019-05-05T11:59:37.678Z,39.91
2019-05-05T12:02:10.617Z,40.07
2019-05-05T12:04:43.502Z,40.26
2019-05-05T12:07:16.334Z,41.77
2019-05-05T12:09:49.176Z,38.86
2019-05-05T12:12:22.001Z,39.33
2019-05-05T12:14:54.842Z,42.13
2019-05-05T12:17:27.700Z,42.28
2019-05-05T12:20:00.765Z,42.28
2019-05-05T12:22:34.096Z,43.04
2019-05-05T12:25:07.505Z,41.79
2019-05-05T12:27:40.626Z,38.04
2019-05-05T12:30:14.241Z,37.61
2019-05-05T12:32:47.225Z,37.61
2019-05-05T12:35:20.069Z,38.29
2019-05-05T12:37:53.816Z,40.43
2019-05-05T12:40:26.950Z,43.08
2019-05-05T12:43:00.029Z,43.08
2019-05-05T12:45:34.485Z,45.00
2019-05-05T12:48:07.489Z,45.00
2019-05-05T12:50:40.422Z,43.11
2019-05-05T12:53:14.548Z,41.76
2019-05-05T12:55:48.156Z,44.15
2019-05-05T12:58:20.991Z,44.15
2019-05-05T13:00:54.121Z,44.09
2019-05-05T13:03:27.006Z,44.58
2019-05-05T13:05:59.944Z,41.37
2019-05-05T13:08:34.085Z,38.36
2019-05-05T13:11:08.461Z,37.72
2019-05-05T13:13:43.815Z,40.22
2019-05-05T13:16:16.786Z,44.14
2019-05-05T13:18:50.132Z,44.14
2019-05-05T13:21:23.987Z,45.79
2019-05-05T13:23:57.039Z,48.00
2019-05-05T13:26:30.177Z,48.00
2019-05-05T13:29:03.380Z,47.07
2019-05-05T13:31:36.925Z,47.77
2019-05-05T13:34:09.915Z,47.21
2019-05-05T13:36:44.099Z,47.21
2019-05-05T13:39:17.451Z,47.64
2019-05-05T13:41:50.617Z,44.54
2019-05-05T13:44:24.323Z,44.54
2019-05-05T13:46:57.152Z,38.18
2019-05-05T13:49:30.482Z,35.56
2019-05-05T13:52:04.695Z,38.30
2019-05-05T13:54:38.195Z,38.30
2019-05-05T13:57:11.095Z,42.59
2019-05-05T13:59:44.692Z,46.60
2019-05-05T14:02:17.712Z,46.60
2019-05-05T14:04:50.584Z,43.44
2019-05-05T14:07:24.072Z,47.77
2019-05-05T14:09:59.028Z,47.77
2019-05-05T14:12:34.395Z,46.91
2019-05-05T14:15:10.354Z,43.62
2019-05-05T14:17:44.009Z,41.57
2019-05-05T14:20:17.563Z,36.86
2019-05-05T14:22:51.296Z,37.95
2019-05-05T14:25:24.420Z,37.95
2019-05-05T14:27:57.427Z,38.37
2019-05-05T14:30:30.615Z,41.86
2019-05-05T14:33:03.928Z,41.86
2019-05-05T14:35:36.920Z,47.54
2019-05-05T14:38:09.888Z,52.69
2019-05-05T14:40:44.576Z,53.72
2019-05-05T14:43:17.769Z,54.57
2019-05-05T14:45:51.372Z,54.57
2019-05-05T14:48:24.368Z,54.38
2019-05-05T14:50:57.383Z,53.36
2019-05-05T14:53:30.568Z,53.36
2019-05-05T14:56:04.633Z,53.45
2019-05-05T14:58:37.692Z,56.35
2019-05-05T15:01:11.023Z,55.80
2019-05-05T15:03:44.463Z,57.56
2019-05-05T15:06:17.992Z,58.15
2019-05-05T15:08:51.186Z,58.15
2019-05-05T15:11:24.193Z,56.10
2019-05-05T15:13:57.271Z,56.00
2019-05-05T15:16:30.344Z,57.00
2019-05-05T15:19:03.911Z,55.03
2019-05-05T15:21:37.137Z,54.34
2019-05-05T15:24:10.112Z,51.62
2019-05-05T15:26:51.197Z,51.62
2019-05-05T15:29:17.614Z,50.58
2019-05-05T15:31:51.415Z,52.81
2019-05-05T15:34:24.820Z,52.12
2019-05-05T15:36:57.757Z,48.74
2019-05-05T15:39:30.858Z,48.74
2019-05-05T15:42:04.619Z,49.41
2019-05-05T15:44:38.065Z,46.72
2019-05-05T15:47:11.161Z,47.21
2019-05-05T15:49:44.215Z,51.59
2019-05-05T15:52:20.019Z,51.59
2019-05-05T15:54:53.848Z,52.85
2019-05-05T15:57:26.770Z,55.68
2019-05-05T15:59:59.767Z,57.02
2019-05-05T16:02:35.844Z,57.77
2019-05-05T16:05:08.434Z,58.60
2019-05-05T16:07:43.814Z,60.50
2019-05-05T16:10:17.967Z,60.06
2019-05-05T16:12:51.312Z,58.81
2019-05-05T16:15:24.502Z,59.96
2019-05-05T16:17:57.502Z,59.82
2019-05-05T16:20:30.391Z,59.48
2019-05-05T16:23:03.613Z,59.48
2019-05-05T16:25:37.275Z,59.05
2019-05-05T16:28:10.189Z,59.48
2019-05-05T16:30:44.542Z,59.03
2019-05-05T16:33:17.680Z,59.03
2019-05-05T16:35:50.774Z,58.85
2019-05-05T16:38:24.098Z,60.74
2019-05-05T16:40:57.514Z,61.09
2019-05-05T16:43:30.764Z,63.87
2019-05-05T16:46:04.237Z,63.87
2019-05-05T16:48:37.418Z,65.67
2019-05-05T16:51:10.401Z,76.87
2019-05-05T16:53:43.492Z,76.87
2019-05-05T16:56:16.373Z,78.95
2019-05-05T16:58:49.322Z,79.18
2019-05-05T17:01:22.456Z,79.48
2019-05-05T17:04:07.702Z,77.68
2019-05-05T17:06:30.502Z,78.09
2019-05-05T17:09:06.966Z,78.26
2019-05-05T17:11:40.277Z,79.09
2019-05-05T17:14:13.287Z,79.88
2019-05-05T17:16:46.418Z,79.37
2019-05-05T17:19:19.838Z,78.09
2019-05-05T17:21:53.633Z,77.63
2019-05-05T17:24:26.623Z,77.24
2019-05-05T17:26:59.568Z,76.87
2019-05-05T17:29:34.374Z,76.25
2019-05-05T17:32:07.254Z,75.36
2019-05-05T17:34:40.454Z,76.83
2019-05-05T17:37:13.532Z,77.89
2019-05-05T17:39:46.725Z,77.53
2019-05-05T17:42:19.780Z,78.51
2019-05-05T17:44:52.786Z,79.13
2019-05-05T17:47:26.376Z,79.93
2019-05-05T17:49:59.275Z,79.47
2019-05-05T17:52:34.243Z,78.88
2019-05-05T17:55:07.287Z,78.06
2019-05-05T17:57:40.296Z,76.76
2019-05-05T18:00:14.775Z,75.17
2019-05-05T18:02:47.934Z,72.76
2019-05-05T18:05:20.951Z,72.07
2019-05-05T18:07:53.854Z,71.00
2019-05-05T18:10:26.911Z,70.32
2019-05-05T18:12:59.965Z,69.41
2019-05-05T18:15:34.109Z,68.87
2019-05-05T18:18:07.300Z,68.87
2019-05-05T18:20:40.217Z,69.88
2019-05-05T18:23:13.863Z,69.12
2019-05-05T18:25:46.932Z,70.38
2019-05-05T18:28:20.325Z,71.55
2019-05-05T18:30:53.981Z,72.29
2019-05-05T18:33:27.112Z,73.03
2019-05-05T18:36:00.065Z,73.61
2019-05-05T18:38:33.694Z,73.92
2019-05-05T18:41:06.815Z,73.98
2019-05-05T18:43:39.800Z,76.06
2019-05-05T18:46:13.672Z,76.06
2019-05-05T18:48:46.709Z,76.79
2019-05-05T18:51:19.723Z,76.79
2019-05-05T18:53:54.903Z,77.83
2019-05-05T18:56:27.591Z,78.54
2019-05-05T18:59:00.588Z,78.88
2019-05-05T19:01:33.798Z,78.38
2019-05-05T19:04:06.887Z,78.07
2019-05-05T19:06:40.362Z,78.71
2019-05-05T19:09:13.744Z,78.69
2019-05-05T19:11:46.757Z,78.65
2019-05-05T19:14:19.769Z,79.64
2019-05-05T19:16:55.258Z,80.47
2019-05-05T19:19:27.575Z,81.19
2019-05-05T19:22:00.581Z,82.03
2019-05-05T19:24:35.377Z,82.52
2019-05-05T19:27:08.677Z,83.95
2019-05-05T19:29:41.678Z,83.17
2019-05-05T19:32:14.765Z,82.73
2019-05-05T19:34:47.696Z,83.04
2019-05-05T19:37:20.812Z,83.35
2019-05-05T19:39:53.651Z,84.85
2019-05-05T19:42:26.686Z,85.07
2019-05-05T19:44:59.554Z,85.46
2019-05-05T19:47:34.054Z,85.09
2019-05-05T19:50:07.711Z,84.98
2019-05-05T19:52:40.786Z,84.98
2019-05-05T19:55:13.904Z,85.02
2019-05-05T19:57:47.144Z,85.16
2019-05-05T20:00:20.301Z,84.79
2019-05-05T20:03:03.961Z,84.64
2019-05-05T20:05:28.147Z,84.91
2019-05-05T20:08:00.995Z,84.91
2019-05-05T20:10:34.115Z,85.33
2019-05-05T20:13:07.137Z,85.24
2019-05-05T20:15:40.147Z,85.59
2019-05-05T20:18:14.180Z,85.59
2019-05-05T20:21:00.656Z,86.16
2019-05-05T20:23:24.271Z,86.19
2019-05-05T20:25:56.931Z,86.19
2019-05-05T20:28:29.776Z,86.04
2019-05-05T20:31:03.612Z,86.04
2019-05-05T20:33:36.730Z,86.80
2019-05-05T20:36:09.678Z,86.36
2019-05-05T20:38:44.017Z,85.74
2019-05-05T20:41:17.498Z,85.56
2019-05-05T20:43:50.584Z,85.59
2019-05-05T20:46:23.824Z,85.66
2019-05-05T20:48:56.884Z,85.39
2019-05-05T20:51:31.058Z,85.28
2019-05-05T20:54:04.995Z,85.28
2019-05-05T20:56:38.070Z,85.11
2019-05-05T20:59:23.801Z,85.26
2019-05-05T21:01:45.870Z,85.35
2019-05-05T21:04:19.572Z,85.33
2019-05-05T21:06:52.501Z,85.46
2019-05-05T21:09:25.819Z,85.31
2019-05-05T21:11:59.036Z,85.55
2019-05-05T21:14:37.228Z,85.55
2019-05-05T21:17:06.687Z,85.44
2019-05-05T21:19:39.576Z,85.44
2019-05-05T21:22:13.489Z,85.62
